Impacts TAF Board INFO
FOR SITUATIONAL AWARENESS. NOT TO BE USED FOR FLIGHT PLANNING PURPOSES.
IDs:

KTPA - Tampa Intl Arpt, FL, US

Issued at 1139 UTC 16 Jan 2018
Updated at 1453 UTC 16 Jan 2018
Potential Impact None Slight Moderate High
Time1353Z 16/15Z 16/16Z 16/17Z 16/18Z 16/19Z 16/20Z 16/21Z 16/22Z 16/23Z 17/00Z 17/01Z 17/02Z 17/03Z>>
Type OBS PRVL PRVL PRVL PRVL PRVL PRVL PRVL PRVL PRVL PRVL PRVL PRVL PRVL
VIS 10 >6 >6 >6 >6 >6 >6 >6 >6 >6 >6 >6 >6 >6
CIG -- 60 60 60 60 -- -- -- -- -- -- -- -- --
Cover SCT BKN BKN BKN BKN SCT SCT SCT SCT SCT SCT SCT SCT SCT
FltCat VFR VFR VFR VFR VFR VFR VFR VFR VFR VFR VFR VFR VFR VFR
WX -- -- -- -- -- -- -- -- -- -- -- -- -- --
WDir 30 40 40 40 40 330 330 330 330 330 330 330 VRB VRB
WSpd 6 7 7 7 7 7 7 7 7 7 7 7 4 4
WGst -- -- -- -- -- -- -- -- -- -- -- -- -- --

Raw TAF
KTPA 161139Z 1612/1718 04007KT P6SM BKN060
  FM161900 33007KT P6SM SCT050 SCT250
  FM170200 VRB04KT P6SM SCT050 SCT250


Raw METAR
KTPA 161353Z 03006KT 10SM SCT065 12/08 A3038 RMK AO2 SLP286 T01220078
KTPA 161253Z 03005KT 10SM FEW060 10/06 A3037 RMK AO2 SLP283 T01000061
KTPA 161153Z 03007KT 10SM FEW065 09/06 A3035 RMK AO2 SLP278 T00940061 10100 20089 53005

METAR Board
Radar Display
Forecast Discussion

FOR SITUATIONAL AWARENESS. NOT TO BE USED FOR FLIGHT PLANNING PURPOSES.